IL04 weather

Methodist Medical Center of Illinois Heliport
Peoria, Illinois, United States

Public forecast

Using degrees Fahrenheit for public forecast. Weather courtesy of forecast.io.

METAR (pilot weather report)

Closest report is General Wayne A. Downing Peoria International Airport, 5.0 nm (9.2 km) WSW. Retrieved 2019/06/16 08:27 UTC (19 minutes ago):

KPIA 160827Z 00000KT 10SM BKN007 19/17 A2971

TAF (pilot weather forecast)

Closest forecast is General Wayne A. Downing Peoria International Airport, 5.0 nm (9.2 km) WSW. Retrieved 2019/06/16 06:30 UTC (2 hours ago):

TAF KPIA 160526Z 1606/1706 25007KT P6SM -SHRA SCT008 BKN100 TEMPO 1606/1608 5SM -SHRA BR BKN015 FM160800 VRB05KT P6SM VCSH SCT025 BKN050 TEMPO 1608/1612 BKN025 FM161200 VRB03KT P6SM OVC010 FM161500 27006KT P6SM BKN020 FM162000 27007KT P6SM VCSH BKN040 FM170300 03006KT P6SM BKN030